sensor_id;sensor_type;location;lat;lon;timestamp;pressure;altitude;pressure_sealevel;temperature;humidity
76586;BME280;65251;51.022;13.736;2023-04-24T00:00:22;98124.72;;;11.98;79.46
76586;BME280;65251;51.022;13.736;2023-04-24T00:00:53;98123.13;;;11.97;79.10
76586;BME280;65251;51.022;13.736;2023-04-24T00:01:26;98121.00;;;11.99;79.14
76586;BME280;65251;51.022;13.736;2023-04-24T00:01:59;98124.72;;;11.98;79.43
76586;BME280;65251;51.022;13.736;2023-04-24T00:02:31;98119.88;;;11.95;78.93
76586;BME280;65251;51.022;13.736;2023-04-24T00:03:03;98110.97;;;11.89;79.45
76586;BME280;65251;51.022;13.736;2023-04-24T00:03:34;98111.06;;;11.94;79.67
76586;BME280;65251;51.022;13.736;2023-04-24T00:04:05;98117.53;;;11.98;78.98
76586;BME280;65251;51.022;13.736;2023-04-24T00:04:37;98115.59;;;11.94;78.55
76586;BME280;65251;51.022;13.736;2023-04-24T00:05:10;98125.44;;;11.93;79.58
76586;BME280;65251;51.022;13.736;2023-04-24T00:05:42;98120.91;;;11.94;79.50
76586;BME280;65251;51.022;13.736;2023-04-24T00:06:13;98120.34;;;11.92;79.23
76586;BME280;65251;51.022;13.736;2023-04-24T00:06:44;98119.78;;;11.90;79.76
76586;BME280;65251;51.022;13.736;2023-04-24T00:07:19;98114.69;;;11.88;79.49
76586;BME280;65251;51.022;13.736;2023-04-24T00:07:51;98119.31;;;11.93;79.35
76586;BME280;65251;51.022;13.736;2023-04-24T00:08:23;98106.44;;;11.90;79.75
76586;BME280;65251;51.022;13.736;2023-04-24T00:08:54;98116.28;;;11.89;79.28
76586;BME280;65251;51.022;13.736;2023-04-24T00:09:26;98120.00;;;11.88;79.35
76586;BME280;65251;51.022;13.736;2023-04-24T00:09:57;98113.31;;;11.86;79.55
76586;BME280;65251;51.022;13.736;2023-04-24T00:10:28;98113.53;;;11.84;79.45
76586;BME280;65251;51.022;13.736;2023-04-24T00:11:00;98119.22;;;11.88;79.83
76586;BME280;65251;51.022;13.736;2023-04-24T00:11:30;98121.31;;;11.86;79.74
76586;BME280;65251;51.022;13.736;2023-04-24T00:12:01;98113.53;;;11.84;79.52
76586;BME280;65251;51.022;13.736;2023-04-24T00:12:35;98113.31;;;11.86;79.50
76586;BME280;65251;51.022;13.736;2023-04-24T00:13:05;98118.16;;;11.89;79.27
76586;BME280;65251;51.022;13.736;2023-04-24T00:13:38;98121.88;;;11.88;79.37
76586;BME280;65251;51.022;13.736;2023-04-24T00:14:10;98122.94;;;11.87;79.41
76586;BME280;65251;51.022;13.736;2023-04-24T00:14:41;98116.53;;;11.88;79.50
76586;BME280;65251;51.022;13.736;2023-04-24T00:15:12;98113.88;;;11.88;79.56
76586;BME280;65251;51.022;13.736;2023-04-24T00:15:43;98122.69;;;11.88;79.50
76586;BME280;65251;51.022;13.736;2023-04-24T00:16:14;98126.16;;;11.89;79.52
76586;BME280;65251;51.022;13.736;2023-04-24T00:16:45;98119.44;;;11.86;79.40
76586;BME280;65251;51.022;13.736;2023-04-24T00:17:17;98117.81;;;11.85;79.55
76586;BME280;65251;51.022;13.736;2023-04-24T00:17:50;98120.81;;;11.89;79.14
76586;BME280;65251;51.022;13.736;2023-04-24T00:18:20;98120.25;;;11.87;80.26
76586;BME280;65251;51.022;13.736;2023-04-24T00:18:52;98129.88;;;11.88;79.50
76586;BME280;65251;51.022;13.736;2023-04-24T00:19:23;98128.25;;;11.87;79.66
76586;BME280;65251;51.022;13.736;2023-04-24T00:19:54;98124.53;;;11.88;79.74
76586;BME280;65251;51.022;13.736;2023-04-24T00:20:28;98122.13;;;11.86;79.57
76586;BME280;65251;51.022;13.736;2023-04-24T00:21:03;98130.34;;;11.85;79.49
76586;BME280;65251;51.022;13.736;2023-04-24T00:21:33;98125.59;;;11.87;79.27
76586;BME280;65251;51.022;13.736;2023-04-24T00:22:04;98124.22;;;11.84;79.43
76586;BME280;65251;51.022;13.736;2023-04-24T00:22:36;98132.56;;;11.88;79.53
76586;BME280;65251;51.022;13.736;2023-04-24T00:23:07;98129.88;;;11.88;79.70
76586;BME280;65251;51.022;13.736;2023-04-24T00:23:37;98137.66;;;11.89;80.04
76586;BME280;65251;51.022;13.736;2023-04-24T00:24:08;98138.47;;;11.90;79.41
76586;BME280;65251;51.022;13.736;2023-04-24T00:24:40;98146.22;;;11.91;79.70
76586;BME280;65251;51.022;13.736;2023-04-24T00:25:11;98149.72;;;11.92;79.44
76586;BME280;65251;51.022;13.736;2023-04-24T00:25:42;98144.38;;;11.92;79.41
76586;BME280;65251;51.022;13.736;2023-04-24T00:26:13;98149.47;;;11.93;79.31
76586;BME280;65251;51.022;13.736;2023-04-24T00:26:44;98146.22;;;11.91;79.38
76586;BME280;65251;51.022;13.736;2023-04-24T00:27:15;98143.00;;;11.89;79.05
76586;BME280;65251;51.022;13.736;2023-04-24T00:27:47;98136.03;;;11.88;79.81
76586;BME280;65251;51.022;13.736;2023-04-24T00:28:18;98133.94;;;11.90;79.64
76586;BME280;65251;51.022;13.736;2023-04-24T00:28:50;98137.22;;;11.81;80.07
76586;BME280;65251;51.022;13.736;2023-04-24T00:29:21;98128.69;;;11.79;80.27
76586;BME280;65251;51.022;13.736;2023-04-24T00:29:52;98136.97;;;11.82;80.12
76586;BME280;65251;51.022;13.736;2023-04-24T00:30:23;98136.50;;;11.85;80.43
76586;BME280;65251;51.022;13.736;2023-04-24T00:30:54;98133.84;;;11.85;79.93
76586;BME280;65251;51.022;13.736;2023-04-24T00:31:25;98129.78;;;11.83;79.95
76586;BME280;65251;51.022;13.736;2023-04-24T00:31:57;98133.59;;;11.87;79.79
76586;BME280;65251;51.022;13.736;2023-04-24T00:32:28;98134.16;;;11.89;79.95
76586;BME280;65251;51.022;13.736;2023-04-24T00:32:59;98124.31;;;11.89;80.22
76586;BME280;65251;51.022;13.736;2023-04-24T00:33:30;98131.03;;;11.92;79.76
76586;BME280;65251;51.022;13.736;2023-04-24T00:34:02;98132.66;;;11.93;79.75
76586;BME280;65251;51.022;13.736;2023-04-24T00:34:33;98133.78;;;11.97;79.35
76586;BME280;65251;51.022;13.736;2023-04-24T00:35:05;98133.78;;;11.97;79.53
76586;BME280;65251;51.022;13.736;2023-04-24T00:35:37;98130.88;;;11.98;79.12
76586;BME280;65251;51.022;13.736;2023-04-24T00:36:08;98126.81;;;11.96;79.58
76586;BME280;65251;51.022;13.736;2023-04-24T00:36:38;98133.28;;;12.00;79.43
76586;BME280;65251;51.022;13.736;2023-04-24T00:37:09;98127.41;;;11.98;79.37
76586;BME280;65251;51.022;13.736;2023-04-24T00:37:41;98132.81;;;12.03;78.96
76586;BME280;65251;51.022;13.736;2023-04-24T00:38:12;98133.59;;;12.03;78.75
76586;BME280;65251;51.022;13.736;2023-04-24T00:38:43;98129.91;;;12.04;79.12
76586;BME280;65251;51.022;13.736;2023-04-24T00:39:15;98132.22;;;12.01;78.54
76586;BME280;65251;51.022;13.736;2023-04-24T00:39:45;98126.88;;;12.01;78.92
76586;BME280;65251;51.022;13.736;2023-04-24T00:40:16;98128.75;;;12.00;78.99
76586;BME280;65251;51.022;13.736;2023-04-24T00:40:47;98134.41;;;12.04;79.18
76586;BME280;65251;51.022;13.736;2023-04-24T00:41:20;98135.22;;;12.04;78.95
76586;BME280;65251;51.022;13.736;2023-04-24T00:41:52;98130.94;;;12.03;79.44
76586;BME280;65251;51.022;13.736;2023-04-24T00:42:23;98130.69;;;12.05;79.31
76586;BME280;65251;51.022;13.736;2023-04-24T00:42:56;98136.84;;;12.05;79.58
76586;BME280;65251;51.022;13.736;2023-04-24T00:43:27;98131.50;;;12.05;79.01
76586;BME280;65251;51.022;13.736;2023-04-24T00:43:59;98129.66;;;12.06;79.68
76586;BME280;65251;51.022;13.736;2023-04-24T00:44:31;98127.22;;;12.04;79.32
76586;BME280;65251;51.022;13.736;2023-04-24T00:45:03;98131.50;;;12.05;79.37
76586;BME280;65251;51.022;13.736;2023-04-24T00:45:34;98126.75;;;12.07;79.23
76586;BME280;65251;51.022;13.736;2023-04-24T00:46:06;98131.03;;;12.08;79.19
76586;BME280;65251;51.022;13.736;2023-04-24T00:46:37;98132.91;;;12.08;79.40
76586;BME280;65251;51.022;13.736;2023-04-24T00:47:09;98134.28;;;12.11;79.33
76586;BME280;65251;51.022;13.736;2023-04-24T00:47:42;98130.22;;;12.08;78.64
76586;BME280;65251;51.022;13.736;2023-04-24T00:48:14;98126.75;;;12.07;78.81
76586;BME280;65251;51.022;13.736;2023-04-24T00:48:46;98133.69;;;12.08;78.67
76586;BME280;65251;51.022;13.736;2023-04-24T00:49:17;98127.31;;;12.10;78.92
76586;BME280;65251;51.022;13.736;2023-04-24T00:49:49;98127.06;;;12.11;79.12
76586;BME280;65251;51.022;13.736;2023-04-24T00:50:21;98123.59;;;12.11;78.89
76586;BME280;65251;51.022;13.736;2023-04-24T00:50:52;98128.69;;;12.12;78.46
76586;BME280;65251;51.022;13.736;2023-04-24T00:51:23;98126.03;;;12.12;78.66
76586;BME280;65251;51.022;13.736;2023-04-24T00:51:54;98128.69;;;12.12;79.08
76586;BME280;65251;51.022;13.736;2023-04-24T00:52:27;98128.44;;;12.14;79.13
76586;BME280;65251;51.022;13.736;2023-04-24T00:52:58;98115.00;;;12.08;79.18
76586;BME280;65251;51.022;13.736;2023-04-24T00:53:30;98124.16;;;12.13;79.31
76586;BME280;65251;51.022;13.736;2023-04-24T00:54:01;98123.34;;;12.12;78.83
76586;BME280;65251;51.022;13.736;2023-04-24T00:54:32;98124.72;;;12.15;78.72
76586;BME280;65251;51.022;13.736;2023-04-24T00:55:04;98124.50;;;12.16;78.63
76586;BME280;65251;51.022;13.736;2023-04-24T00:55:36;98115.66;;;12.16;78.41
76586;BME280;65251;51.022;13.736;2023-04-24T00:56:07;98120.78;;;12.17;78.64
76586;BME280;65251;51.022;13.736;2023-04-24T00:56:40;98125.34;;;12.22;78.92
76586;BME280;65251;51.022;13.736;2023-04-24T00:57:13;98120.03;;;12.22;79.09
76586;BME280;65251;51.022;13.736;2023-04-24T00:57:45;98111.44;;;12.20;78.13
76586;BME280;65251;51.022;13.736;2023-04-24T00:58:17;98120.81;;;12.22;78.14
76586;BME280;65251;51.022;13.736;2023-04-24T00:58:48;98112.56;;;12.24;78.31
76586;BME280;65251;51.022;13.736;2023-04-24T00:59:20;98112.34;;;12.25;78.63
76586;BME280;65251;51.022;13.736;2023-04-24T00:59:51;98122.53;;;12.28;78.44
76586;BME280;65251;51.022;13.736;2023-04-24T01:00:24;98116.06;;;12.24;78.30
76586;BME280;65251;51.022;13.736;2023-04-24T01:00:56;98126.59;;;12.31;78.66
76586;BME280;65251;51.022;13.736;2023-04-24T01:01:27;98119.63;;;12.30;78.56
76586;BME280;65251;51.022;13.736;2023-04-24T01:01:58;98111.59;;;12.30;78.41
76586;BME280;65251;51.022;13.736;2023-04-24T01:02:30;98111.84;;;12.28;78.32
76586;BME280;65251;51.022;13.736;2023-04-24T01:03:05;98111.03;;;12.28;78.04
76586;BME280;65251;51.022;13.736;2023-04-24T01:03:36;98110.56;;;12.31;78.50
76586;BME280;65251;51.022;13.736;2023-04-24T01:04:07;98112.41;;;12.30;78.86
76586;BME280;65251;51.022;13.736;2023-04-24T01:04:40;98112.09;;;12.27;78.66
76586;BME280;65251;51.022;13.736;2023-04-24T01:05:12;98117.28;;;12.33;78.17
76586;BME280;65251;51.022;13.736;2023-04-24T01:05:43;98109.75;;;12.30;78.60
76586;BME280;65251;51.022;13.736;2023-04-24T01:06:15;98116.47;;;12.33;78.94
76586;BME280;65251;51.022;13.736;2023-04-24T01:06:48;98108.47;;;12.33;77.78
76586;BME280;65251;51.022;13.736;2023-04-24T01:07:20;98110.06;;;12.34;77.69
76586;BME280;65251;51.022;13.736;2023-04-24T01:07:52;98109.50;;;12.32;78.30
76586;BME280;65251;51.022;13.736;2023-04-24T01:08:24;98110.31;;;12.32;77.90
76586;BME280;65251;51.022;13.736;2023-04-24T01:08:58;98106.28;;;12.30;78.40
76586;BME280;65251;51.022;13.736;2023-04-24T01:09:29;98107.41;;;12.34;77.57
76586;BME280;65251;51.022;13.736;2023-04-24T01:10:01;98108.47;;;12.33;78.38
76586;BME280;65251;51.022;13.736;2023-04-24T01:10:33;98109.25;;;12.33;78.51
76586;BME280;65251;51.022;13.736;2023-04-24T01:11:05;98106.34;;;12.35;78.08
76586;BME280;65251;51.022;13.736;2023-04-24T01:11:37;98111.69;;;12.35;78.24
76586;BME280;65251;51.022;13.736;2023-04-24T01:12:08;98110.88;;;12.34;78.75
76586;BME280;65251;51.022;13.736;2023-04-24T01:12:39;98110.06;;;12.34;78.27
76586;BME280;65251;51.022;13.736;2023-04-24T01:13:11;98118.91;;;12.34;78.46
76586;BME280;65251;51.022;13.736;2023-04-24T01:13:42;98111.13;;;12.33;77.75
76586;BME280;65251;51.022;13.736;2023-04-24T01:14:13;98120.50;;;12.35;78.52
76586;BME280;65251;51.022;13.736;2023-04-24T01:14:46;98115.66;;;12.32;78.89
76586;BME280;65251;51.022;13.736;2023-04-24T01:15:17;98121.00;;;12.32;78.29
76586;BME280;65251;51.022;13.736;2023-04-24T01:15:48;98106.84;;;12.32;77.80
76586;BME280;65251;51.022;13.736;2023-04-24T01:16:20;98115.09;;;12.30;78.81
76586;BME280;65251;51.022;13.736;2023-04-24T01:16:51;98112.41;;;12.30;78.10
76586;BME280;65251;51.022;13.736;2023-04-24T01:17:21;98113.22;;;12.31;78.61
76586;BME280;65251;51.022;13.736;2023-04-24T01:17:53;98111.59;;;12.30;78.06
76586;BME280;65251;51.022;13.736;2023-04-24T01:18:24;98115.34;;;12.29;78.36
76586;BME280;65251;51.022;13.736;2023-04-24T01:18:55;98116.94;;;12.30;78.44
76586;BME280;65251;51.022;13.736;2023-04-24T01:19:26;98116.94;;;12.30;78.51
76586;BME280;65251;51.022;13.736;2023-04-24T01:19:58;98120.44;;;12.30;79.02
76586;BME280;65251;51.022;13.736;2023-04-24T01:20:31;98119.38;;;12.31;77.93
76586;BME280;65251;51.022;13.736;2023-04-24T01:21:04;98118.34;;;12.32;79.13
76586;BME280;65251;51.022;13.736;2023-04-24T01:21:37;98119.63;;;12.30;78.42
76586;BME280;65251;51.022;13.736;2023-04-24T01:22:10;98121.47;;;12.29;78.27
76586;BME280;65251;51.022;13.736;2023-04-24T01:22:42;98122.53;;;12.28;78.58
76586;BME280;65251;51.022;13.736;2023-04-24T01:23:12;98122.28;;;12.30;77.98
76586;BME280;65251;51.022;13.736;2023-04-24T01:23:46;98119.06;;;12.28;78.43
76586;BME280;65251;51.022;13.736;2023-04-24T01:24:17;98123.25;;;12.24;79.16
76586;BME280;65251;51.022;13.736;2023-04-24T01:24:49;98131.94;;;12.31;78.61
76586;BME280;65251;51.022;13.736;2023-04-24T01:25:21;98124.72;;;12.31;78.41
76586;BME280;65251;51.022;13.736;2023-04-24T01:25:52;98126.81;;;12.29;78.57
76586;BME280;65251;51.022;13.736;2023-04-24T01:26:23;98129.25;;;12.31;78.57
76586;BME280;65251;51.022;13.736;2023-04-24T01:26:55;98130.53;;;12.28;78.57
76586;BME280;65251;51.022;13.736;2023-04-24T01:27:27;98127.88;;;12.28;79.08
76586;BME280;65251;51.022;13.736;2023-04-24T01:27:58;98136.13;;;12.27;78.30
76586;BME280;65251;51.022;13.736;2023-04-24T01:28:29;98132.66;;;12.26;78.06
76586;BME280;65251;51.022;13.736;2023-04-24T01:29:01;98121.63;;;12.23;78.85
76586;BME280;65251;51.022;13.736;2023-04-24T01:29:32;98125.13;;;12.23;78.24
76586;BME280;65251;51.022;13.736;2023-04-24T01:30:04;98129.72;;;12.28;78.32
76586;BME280;65251;51.022;13.736;2023-04-24T01:30:34;98126.50;;;12.26;78.60
76586;BME280;65251;51.022;13.736;2023-04-24T01:31:06;98127.63;;;12.30;78.84
76586;BME280;65251;51.022;13.736;2023-04-24T01:31:38;98132.16;;;12.29;78.17
76586;BME280;65251;51.022;13.736;2023-04-24T01:32:10;98128.19;;;12.32;77.98
76586;BME280;65251;51.022;13.736;2023-04-24T01:32:42;98131.94;;;12.31;78.38
76586;BME280;65251;51.022;13.736;2023-04-24T01:33:15;98129.25;;;12.31;78.70
76586;BME280;65251;51.022;13.736;2023-04-24T01:33:47;98123.34;;;12.29;78.77
76586;BME280;65251;51.022;13.736;2023-04-24T01:34:19;98130.31;;;12.30;78.68
76586;BME280;65251;51.022;13.736;2023-04-24T01:34:50;98130.88;;;12.32;78.03
76586;BME280;65251;51.022;13.736;2023-04-24T01:35:21;98129.81;;;12.33;78.60
76586;BME280;65251;51.022;13.736;2023-04-24T01:35:53;98130.63;;;12.33;78.11
76586;BME280;65251;51.022;13.736;2023-04-24T01:36:27;98130.53;;;12.28;78.16
76586;BME280;65251;51.022;13.736;2023-04-24T01:36:59;98133.31;;;12.33;78.44
76586;BME280;65251;51.022;13.736;2023-04-24T01:37:32;98131.69;;;12.32;78.49
76586;BME280;65251;51.022;13.736;2023-04-24T01:38:03;98129.34;;;12.36;78.65
76586;BME280;65251;51.022;13.736;2023-04-24T01:38:35;98141.31;;;12.33;78.89
76586;BME280;65251;51.022;13.736;2023-04-24T01:39:07;98129.59;;;12.34;78.46
76586;BME280;65251;51.022;13.736;2023-04-24T01:39:38;98133.88;;;12.35;77.81
76586;BME280;65251;51.022;13.736;2023-04-24T01:40:10;98126.81;;;12.29;78.73
76586;BME280;65251;51.022;13.736;2023-04-24T01:40:41;98127.16;;;12.33;77.63
76586;BME280;65251;51.022;13.736;2023-04-24T01:41:12;98127.72;;;12.35;78.81
76586;BME280;65251;51.022;13.736;2023-04-24T01:41:43;98129.59;;;12.34;78.14
76586;BME280;65251;51.022;13.736;2023-04-24T01:42:16;98126.66;;;12.36;79.00
76586;BME280;65251;51.022;13.736;2023-04-24T01:42:47;98126.91;;;12.34;78.13
76586;BME280;65251;51.022;13.736;2023-04-24T01:43:18;98119.13;;;12.33;78.35
76586;BME280;65251;51.022;13.736;2023-04-24T01:43:50;98126.09;;;12.34;78.01
76586;BME280;65251;51.022;13.736;2023-04-24T01:44:21;98119.72;;;12.35;78.70
76586;BME280;65251;51.022;13.736;2023-04-24T01:44:53;98119.94;;;12.33;78.29
76586;BME280;65251;51.022;13.736;2023-04-24T01:45:25;98120.75;;;12.34;79.04
76586;BME280;65251;51.022;13.736;2023-04-24T01:45:56;98121.81;;;12.33;78.20
76586;BME280;65251;51.022;13.736;2023-04-24T01:46:26;98127.47;;;12.36;78.18
76586;BME280;65251;51.022;13.736;2023-04-24T01:46:58;98122.94;;;12.37;78.29
76586;BME280;65251;51.022;13.736;2023-04-24T01:47:30;98116.22;;;12.34;78.88
76586;BME280;65251;51.022;13.736;2023-04-24T01:48:01;98119.22;;;12.38;78.44
76586;BME280;65251;51.022;13.736;2023-04-24T01:48:33;98118.94;;;12.39;77.98
76586;BME280;65251;51.022;13.736;2023-04-24T01:49:05;98118.94;;;12.39;78.10
76586;BME280;65251;51.022;13.736;2023-04-24T01:49:37;98120.56;;;12.40;78.57
76586;BME280;65251;51.022;13.736;2023-04-24T01:50:09;98117.38;;;12.38;78.94
76586;BME280;65251;51.022;13.736;2023-04-24T01:50:41;98120.56;;;12.40;77.83
76586;BME280;65251;51.022;13.736;2023-04-24T01:51:12;98121.38;;;12.41;79.03
76586;BME280;65251;51.022;13.736;2023-04-24T01:51:42;98121.38;;;12.41;77.78
76586;BME280;65251;51.022;13.736;2023-04-24T01:52:15;98116.84;;;12.41;77.81
76586;BME280;65251;51.022;13.736;2023-04-24T01:52:48;98116.03;;;12.41;78.05
76586;BME280;65251;51.022;13.736;2023-04-24T01:53:19;98113.13;;;12.42;78.65
76586;BME280;65251;51.022;13.736;2023-04-24T01:53:50;98121.94;;;12.43;77.84
76586;BME280;65251;51.022;13.736;2023-04-24T01:54:21;98112.06;;;12.43;78.05
76586;BME280;65251;51.022;13.736;2023-04-24T01:54:52;98119.28;;;12.43;78.71
76586;BME280;65251;51.022;13.736;2023-04-24T01:55:23;98119.28;;;12.43;77.64
76586;BME280;65251;51.022;13.736;2023-04-24T01:55:55;98115.31;;;12.46;78.39
76586;BME280;65251;51.022;13.736;2023-04-24T01:56:29;98116.13;;;12.46;77.63
76586;BME280;65251;51.022;13.736;2023-04-24T01:57:00;98118.78;;;12.46;77.90
76586;BME280;65251;51.022;13.736;2023-04-24T01:57:33;98114.00;;;12.48;77.93
76586;BME280;65251;51.022;13.736;2023-04-24T01:58:04;98112.16;;;12.49;77.44
76586;BME280;65251;51.022;13.736;2023-04-24T01:58:36;98116.44;;;12.50;77.96
76586;BME280;65251;51.022;13.736;2023-04-24T01:59:09;98118.88;;;12.51;77.63
76586;BME280;65251;51.022;13.736;2023-04-24T01:59:40;98113.28;;;12.53;77.51
76586;BME280;65251;51.022;13.736;2023-04-24T02:00:12;98122.69;;;12.55;77.59
76586;BME280;65251;51.022;13.736;2023-04-24T02:00:43;98118.38;;;12.54;78.17
76586;BME280;65251;51.022;13.736;2023-04-24T02:01:17;98115.22;;;12.57;77.59
76586;BME280;65251;51.022;13.736;2023-04-24T02:01:48;98114.41;;;12.57;76.96
76586;BME280;65251;51.022;13.736;2023-04-24T02:02:19;98113.38;;;12.58;76.86
76586;BME280;65251;51.022;13.736;2023-04-24T02:02:51;98111.50;;;12.58;76.84
76586;BME280;65251;51.022;13.736;2023-04-24T02:03:22;98110.69;;;12.58;77.35
76586;BME280;65251;51.022;13.736;2023-04-24T02:03:53;98112.31;;;12.59;77.89
76586;BME280;65251;51.022;13.736;2023-04-24T02:04:23;98107.75;;;12.59;77.92
76586;BME280;65251;51.022;13.736;2023-04-24T02:04:55;98110.69;;;12.58;76.88
76586;BME280;65251;51.022;13.736;2023-04-24T02:05:26;98117.66;;;12.59;77.05
76586;BME280;65251;51.022;13.736;2023-04-24T02:05:57;98113.38;;;12.58;76.82
76586;BME280;65251;51.022;13.736;2023-04-24T02:06:27;98117.66;;;12.59;77.45
76586;BME280;65251;51.022;13.736;2023-04-24T02:06:59;98111.50;;;12.58;76.97
76586;BME280;65251;51.022;13.736;2023-04-24T02:07:30;98116.03;;;12.58;77.04
76586;BME280;65251;51.022;13.736;2023-04-24T02:08:02;98112.31;;;12.59;77.87
76586;BME280;65251;51.022;13.736;2023-04-24T02:08:34;98113.84;;;12.55;76.81
76586;BME280;65251;51.022;13.736;2023-04-24T02:09:04;98108.19;;;12.51;77.42
76586;BME280;65251;51.022;13.736;2023-04-24T02:09:35;98107.69;;;12.54;77.01
76586;BME280;65251;51.022;13.736;2023-04-24T02:10:08;98106.56;;;12.50;77.94
76586;BME280;65251;51.022;13.736;2023-04-24T02:10:38;98112.97;;;12.49;78.54
76586;BME280;65251;51.022;13.736;2023-04-24T02:11:09;98109.16;;;12.45;77.94
76586;BME280;65251;51.022;13.736;2023-04-24T02:11:41;98108.09;;;12.46;77.81
76586;BME280;65251;51.022;13.736;2023-04-24T02:12:12;98112.16;;;12.49;77.22
76586;BME280;65251;51.022;13.736;2023-04-24T02:12:44;98109.97;;;12.46;77.39
76586;BME280;65251;51.022;13.736;2023-04-24T02:13:14;98112.16;;;12.49;77.94
76586;BME280;65251;51.022;13.736;2023-04-24T02:13:45;98110.78;;;12.46;77.79
76586;BME280;65251;51.022;13.736;2023-04-24T02:14:17;98112.16;;;12.49;77.06
76586;BME280;65251;51.022;13.736;2023-04-24T02:14:48;98109.72;;;12.47;77.57
76586;BME280;65251;51.022;13.736;2023-04-24T02:15:18;98111.09;;;12.50;77.39
76586;BME280;65251;51.022;13.736;2023-04-24T02:15:50;98103.56;;;12.47;77.06
76586;BME280;65251;51.022;13.736;2023-04-24T02:16:21;98100.09;;;12.46;77.84
76586;BME280;65251;51.022;13.736;2023-04-24T02:16:52;98111.91;;;12.50;77.96
76586;BME280;65251;51.022;13.736;2023-04-24T02:17:24;98106.00;;;12.48;77.45
76586;BME280;65251;51.022;13.736;2023-04-24T02:17:55;98105.75;;;12.50;78.35
76586;BME280;65251;51.022;13.736;2023-04-24T02:18:26;98105.44;;;12.46;78.17
76586;BME280;65251;51.022;13.736;2023-04-24T02:18:58;98104.13;;;12.49;77.46
76586;BME280;65251;51.022;13.736;2023-04-24T02:19:29;98103.31;;;12.48;77.80
76586;BME280;65251;51.022;13.736;2023-04-24T02:19:59;98103.66;;;12.52;77.90
76586;BME280;65251;51.022;13.736;2023-04-24T02:20:31;98104.69;;;12.51;77.93
76586;BME280;65251;51.022;13.736;2023-04-24T02:21:04;98107.63;;;12.49;77.07
76586;BME280;65251;51.022;13.736;2023-04-24T02:21:35;98105.28;;;12.53;78.19
76586;BME280;65251;51.022;13.736;2023-04-24T02:22:07;98111.19;;;12.55;77.53
76586;BME280;65251;51.022;13.736;2023-04-24T02:22:38;98109.31;;;12.55;77.43
76586;BME280;65251;51.022;13.736;2023-04-24T02:23:10;98110.69;;;12.58;77.04
76586;BME280;65251;51.022;13.736;2023-04-24T02:23:43;98107.75;;;12.59;76.82
76586;BME280;65251;51.022;13.736;2023-04-24T02:24:14;98109.13;;;12.62;76.39
76586;BME280;65251;51.022;13.736;2023-04-24T02:24:45;98112.84;;;12.61;77.78
76586;BME280;65251;51.022;13.736;2023-04-24T02:25:17;98115.28;;;12.62;77.08
76586;BME280;65251;51.022;13.736;2023-04-24T02:25:47;98105.16;;;12.64;77.49
76586;BME280;65251;51.022;13.736;2023-04-24T02:26:19;98116.66;;;12.65;76.72
76586;BME280;65251;51.022;13.736;2023-04-24T02:26:51;98117.22;;;12.67;77.31
76586;BME280;65251;51.022;13.736;2023-04-24T02:27:21;98109.19;;;12.67;76.31
76586;BME280;65251;51.022;13.736;2023-04-24T02:27:52;98116.97;;;12.68;77.41
76586;BME280;65251;51.022;13.736;2023-04-24T02:28:24;98115.91;;;12.69;77.03
76586;BME280;65251;51.022;13.736;2023-04-24T02:28:54;98115.09;;;12.69;76.39
76586;BME280;65251;51.022;13.736;2023-04-24T02:29:25;98105.22;;;12.69;76.79
76586;BME280;65251;51.022;13.736;2023-04-24T02:29:57;98109.28;;;12.72;77.16
76586;BME280;65251;51.022;13.736;2023-04-24T02:30:28;98111.47;;;12.75;76.86
76586;BME280;65251;51.022;13.736;2023-04-24T02:30:59;98106.03;;;12.70;77.73
76586;BME280;65251;51.022;13.736;2023-04-24T02:31:30;98103.59;;;12.68;77.62
76586;BME280;65251;51.022;13.736;2023-04-24T02:32:02;98114.88;;;12.70;77.19
76586;BME280;65251;51.022;13.736;2023-04-24T02:32:32;98121.59;;;12.73;76.88
76586;BME280;65251;51.022;13.736;2023-04-24T02:33:04;98116.25;;;12.73;76.08
76586;BME280;65251;51.022;13.736;2023-04-24T02:33:36;98110.91;;;12.73;75.89
76586;BME280;65251;51.022;13.736;2023-04-24T02:34:06;98109.28;;;12.72;76.92
76586;BME280;65251;51.022;13.736;2023-04-24T02:34:37;98111.72;;;12.73;77.07
76586;BME280;65251;51.022;13.736;2023-04-24T02:35:08;98113.50;;;12.68;75.68
76586;BME280;65251;51.022;13.736;2023-04-24T02:35:40;98112.50;;;12.74;75.82
76586;BME280;65251;51.022;13.736;2023-04-24T02:36:11;98116.25;;;12.73;76.96
76586;BME280;65251;51.022;13.736;2023-04-24T02:36:42;98114.13;;;12.75;77.03
76586;BME280;65251;51.022;13.736;2023-04-24T02:37:12;98117.63;;;12.75;75.97
76586;BME280;65251;51.022;13.736;2023-04-24T02:37:44;98114.94;;;12.75;76.41
76586;BME280;65251;51.022;13.736;2023-04-24T02:38:16;98119.22;;;12.76;76.56
76586;BME280;65251;51.022;13.736;2023-04-24T02:38:47;98119.00;;;12.78;76.48
76586;BME280;65251;51.022;13.736;2023-04-24T02:39:19;98121.38;;;12.80;76.57
76586;BME280;65251;51.022;13.736;2023-04-24T02:39:49;98113.38;;;12.80;75.40
76586;BME280;65251;51.022;13.736;2023-04-24T02:40:20;98116.03;;;12.80;75.71
76586;BME280;65251;51.022;13.736;2023-04-24T02:40:52;98115.22;;;12.79;76.05
76586;BME280;65251;51.022;13.736;2023-04-24T02:41:22;98115.22;;;12.79;76.63
76586;BME280;65251;51.022;13.736;2023-04-24T02:41:54;98112.31;;;12.81;76.69
76586;BME280;65251;51.022;13.736;2023-04-24T02:42:25;98113.38;;;12.80;76.34
76586;BME280;65251;51.022;13.736;2023-04-24T02:42:56;98124.63;;;12.82;76.81
76586;BME280;65251;51.022;13.736;2023-04-24T02:43:27;98115.78;;;12.81;75.40
76586;BME280;65251;51.022;13.736;2023-04-24T02:43:58;98113.94;;;12.82;75.81
76586;BME280;65251;51.022;13.736;2023-04-24T02:44:29;98116.59;;;12.82;75.26
76586;BME280;65251;51.022;13.736;2023-04-24T02:45:00;98109.09;;;12.79;75.47